sensor_id;sensor_type;location;lat;lon;timestamp;P1;durP1;ratioP1;P2;durP2;ratioP2
66175;SDS011;52977;44.816;20.538;2023-04-15T00:01:28;9.48;;;3.38;;
66175;SDS011;52977;44.816;20.538;2023-04-15T00:03:58;8.18;;;3.20;;
66175;SDS011;52977;44.816;20.538;2023-04-15T00:06:24;7.25;;;2.85;;
66175;SDS011;52977;44.816;20.538;2023-04-15T00:08:50;6.60;;;2.70;;
66175;SDS011;52977;44.816;20.538;2023-04-15T00:11:17;5.88;;;2.50;;
66175;SDS011;52977;44.816;20.538;2023-04-15T00:13:42;6.30;;;2.15;;
66175;SDS011;52977;44.816;20.538;2023-04-15T00:16:09;4.57;;;2.03;;
66175;SDS011;52977;44.816;20.538;2023-04-15T00:18:36;5.63;;;2.42;;
66175;SDS011;52977;44.816;20.538;2023-04-15T00:21:02;4.78;;;2.22;;
66175;SDS011;52977;44.816;20.538;2023-04-15T00:23:28;5.78;;;2.67;;
66175;SDS011;52977;44.816;20.538;2023-04-15T00:25:55;5.07;;;2.10;;
66175;SDS011;52977;44.816;20.538;2023-04-15T00:28:21;5.15;;;2.10;;
66175;SDS011;52977;44.816;20.538;2023-04-15T00:30:46;6.10;;;2.38;;
66175;SDS011;52977;44.816;20.538;2023-04-15T00:33:12;5.75;;;2.03;;
66175;SDS011;52977;44.816;20.538;2023-04-15T00:35:40;4.28;;;2.30;;
66175;SDS011;52977;44.816;20.538;2023-04-15T00:38:07;6.25;;;2.60;;
66175;SDS011;52977;44.816;20.538;2023-04-15T00:40:33;4.55;;;2.10;;
66175;SDS011;52977;44.816;20.538;2023-04-15T00:42:59;8.73;;;2.63;;
66175;SDS011;52977;44.816;20.538;2023-04-15T00:45:25;6.20;;;1.95;;
66175;SDS011;52977;44.816;20.538;2023-04-15T00:47:54;5.55;;;2.00;;
66175;SDS011;52977;44.816;20.538;2023-04-15T00:50:28;6.63;;;2.22;;
66175;SDS011;52977;44.816;20.538;2023-04-15T00:52:54;9.57;;;3.65;;
66175;SDS011;52977;44.816;20.538;2023-04-15T00:55:21;8.18;;;3.03;;
66175;SDS011;52977;44.816;20.538;2023-04-15T00:57:47;6.90;;;2.72;;
66175;SDS011;52977;44.816;20.538;2023-04-15T01:00:13;6.68;;;3.30;;
66175;SDS011;52977;44.816;20.538;2023-04-15T01:02:39;6.03;;;2.67;;
66175;SDS011;52977;44.816;20.538;2023-04-15T01:05:05;5.50;;;2.53;;
66175;SDS011;52977;44.816;20.538;2023-04-15T01:07:31;4.93;;;2.50;;
66175;SDS011;52977;44.816;20.538;2023-04-15T01:09:57;7.10;;;2.40;;
66175;SDS011;52977;44.816;20.538;2023-04-15T01:12:23;6.45;;;2.25;;
66175;SDS011;52977;44.816;20.538;2023-04-15T01:14:54;4.20;;;1.67;;
66175;SDS011;52977;44.816;20.538;2023-04-15T01:17:21;3.25;;;1.30;;
66175;SDS011;52977;44.816;20.538;2023-04-15T01:19:48;3.42;;;1.50;;
66175;SDS011;52977;44.816;20.538;2023-04-15T01:22:15;5.78;;;1.33;;
66175;SDS011;52977;44.816;20.538;2023-04-15T01:24:41;2.33;;;1.05;;
66175;SDS011;52977;44.816;20.538;2023-04-15T01:27:19;4.20;;;1.00;;
66175;SDS011;52977;44.816;20.538;2023-04-15T01:29:45;2.95;;;1.17;;
66175;SDS011;52977;44.816;20.538;2023-04-15T01:32:11;4.78;;;1.50;;
66175;SDS011;52977;44.816;20.538;2023-04-15T01:34:37;2.67;;;1.15;;
66175;SDS011;52977;44.816;20.538;2023-04-15T01:37:02;4.47;;;1.20;;
66175;SDS011;52977;44.816;20.538;2023-04-15T01:39:28;3.45;;;1.20;;
66175;SDS011;52977;44.816;20.538;2023-04-15T01:41:55;2.70;;;1.10;;
66175;SDS011;52977;44.816;20.538;2023-04-15T01:44:22;2.63;;;1.00;;
66175;SDS011;52977;44.816;20.538;2023-04-15T01:46:49;3.80;;;1.08;;
66175;SDS011;52977;44.816;20.538;2023-04-15T01:49:15;3.72;;;1.15;;
66175;SDS011;52977;44.816;20.538;2023-04-15T01:51:41;3.63;;;1.40;;
66175;SDS011;52977;44.816;20.538;2023-04-15T01:54:07;4.70;;;0.98;;
66175;SDS011;52977;44.816;20.538;2023-04-15T01:56:34;1.80;;;0.80;;
66175;SDS011;52977;44.816;20.538;2023-04-15T01:59:01;1.45;;;0.60;;
66175;SDS011;52977;44.816;20.538;2023-04-15T02:01:28;3.40;;;0.93;;
66175;SDS011;52977;44.816;20.538;2023-04-15T02:03:57;2.28;;;0.90;;
66175;SDS011;52977;44.816;20.538;2023-04-15T02:06:23;3.28;;;1.00;;
66175;SDS011;52977;44.816;20.538;2023-04-15T02:08:50;2.50;;;0.77;;
66175;SDS011;52977;44.816;20.538;2023-04-15T02:11:16;2.15;;;0.95;;
66175;SDS011;52977;44.816;20.538;2023-04-15T02:13:43;2.95;;;1.00;;
66175;SDS011;52977;44.816;20.538;2023-04-15T02:16:18;2.25;;;0.90;;
66175;SDS011;52977;44.816;20.538;2023-04-15T02:18:45;3.63;;;0.80;;
66175;SDS011;52977;44.816;20.538;2023-04-15T02:21:12;2.40;;;0.95;;
66175;SDS011;52977;44.816;20.538;2023-04-15T02:23:38;2.33;;;0.80;;
66175;SDS011;52977;44.816;20.538;2023-04-15T02:26:04;1.92;;;0.75;;
66175;SDS011;52977;44.816;20.538;2023-04-15T02:28:31;2.95;;;0.88;;
66175;SDS011;52977;44.816;20.538;2023-04-15T02:30:57;2.53;;;0.70;;
66175;SDS011;52977;44.816;20.538;2023-04-15T02:33:24;2.33;;;0.85;;
66175;SDS011;52977;44.816;20.538;2023-04-15T02:35:51;4.05;;;1.08;;
66175;SDS011;52977;44.816;20.538;2023-04-15T02:38:17;2.58;;;1.00;;
66175;SDS011;52977;44.816;20.538;2023-04-15T02:40:44;2.45;;;0.75;;
66175;SDS011;52977;44.816;20.538;2023-04-15T02:43:11;2.03;;;1.00;;
66175;SDS011;52977;44.816;20.538;2023-04-15T02:45:37;3.03;;;0.80;;
66175;SDS011;52977;44.816;20.538;2023-04-15T02:48:03;1.95;;;0.75;;
66175;SDS011;52977;44.816;20.538;2023-04-15T02:50:31;1.67;;;0.68;;
66175;SDS011;52977;44.816;20.538;2023-04-15T02:52:56;2.00;;;0.88;;
66175;SDS011;52977;44.816;20.538;2023-04-15T02:55:22;2.80;;;0.85;;
66175;SDS011;52977;44.816;20.538;2023-04-15T02:57:48;2.13;;;0.60;;
66175;SDS011;52977;44.816;20.538;2023-04-15T03:00:13;1.30;;;0.60;;
66175;SDS011;52977;44.816;20.538;2023-04-15T03:02:43;3.85;;;1.40;;
66175;SDS011;52977;44.816;20.538;2023-04-15T03:05:11;6.90;;;2.40;;
66175;SDS011;52977;44.816;20.538;2023-04-15T03:07:41;7.47;;;3.15;;
66175;SDS011;52977;44.816;20.538;2023-04-15T03:10:07;8.65;;;3.30;;
66175;SDS011;52977;44.816;20.538;2023-04-15T03:12:35;8.57;;;2.70;;
66175;SDS011;52977;44.816;20.538;2023-04-15T03:15:01;5.05;;;1.98;;
66175;SDS011;52977;44.816;20.538;2023-04-15T03:17:34;6.15;;;2.13;;
66175;SDS011;52977;44.816;20.538;2023-04-15T03:20:04;5.80;;;2.30;;
66175;SDS011;52977;44.816;20.538;2023-04-15T03:22:30;6.00;;;2.50;;
66175;SDS011;52977;44.816;20.538;2023-04-15T03:24:56;6.50;;;2.47;;
66175;SDS011;52977;44.816;20.538;2023-04-15T03:27:22;6.80;;;2.60;;
66175;SDS011;52977;44.816;20.538;2023-04-15T03:29:49;5.78;;;2.38;;
66175;SDS011;52977;44.816;20.538;2023-04-15T03:32:17;6.88;;;2.53;;
66175;SDS011;52977;44.816;20.538;2023-04-15T03:34:43;6.90;;;2.38;;
66175;SDS011;52977;44.816;20.538;2023-04-15T03:37:09;5.13;;;1.92;;
66175;SDS011;52977;44.816;20.538;2023-04-15T03:39:35;6.20;;;2.00;;
66175;SDS011;52977;44.816;20.538;2023-04-15T03:42:01;4.82;;;1.40;;
66175;SDS011;52977;44.816;20.538;2023-04-15T03:44:28;6.10;;;1.52;;
66175;SDS011;52977;44.816;20.538;2023-04-15T03:46:55;4.95;;;1.80;;
66175;SDS011;52977;44.816;20.538;2023-04-15T03:49:21;6.90;;;1.73;;
66175;SDS011;52977;44.816;20.538;2023-04-15T03:51:48;3.33;;;1.40;;
66175;SDS011;52977;44.816;20.538;2023-04-15T03:54:14;4.65;;;1.30;;
66175;SDS011;52977;44.816;20.538;2023-04-15T03:56:40;3.83;;;1.23;;
66175;SDS011;52977;44.816;20.538;2023-04-15T03:59:06;2.65;;;0.95;;
66175;SDS011;52977;44.816;20.538;2023-04-15T04:01:32;2.42;;;1.08;;
66175;SDS011;52977;44.816;20.538;2023-04-15T04:03:58;2.80;;;1.00;;
66175;SDS011;52977;44.816;20.538;2023-04-15T04:06:24;4.18;;;1.30;;
66175;SDS011;52977;44.816;20.538;2023-04-15T04:08:51;2.17;;;1.13;;
66175;SDS011;52977;44.816;20.538;2023-04-15T04:11:17;4.18;;;1.20;;
66175;SDS011;52977;44.816;20.538;2023-04-15T04:13:43;3.08;;;1.13;;
66175;SDS011;52977;44.816;20.538;2023-04-15T04:16:09;3.30;;;1.05;;
66175;SDS011;52977;44.816;20.538;2023-04-15T04:18:35;2.03;;;0.82;;
66175;SDS011;52977;44.816;20.538;2023-04-15T04:21:02;2.80;;;1.00;;
66175;SDS011;52977;44.816;20.538;2023-04-15T04:23:28;2.58;;;0.90;;
66175;SDS011;52977;44.816;20.538;2023-04-15T04:25:54;3.90;;;1.30;;
66175;SDS011;52977;44.816;20.538;2023-04-15T04:28:20;4.93;;;1.55;;
66175;SDS011;52977;44.816;20.538;2023-04-15T04:30:46;4.18;;;1.20;;
66175;SDS011;52977;44.816;20.538;2023-04-15T04:33:11;2.30;;;1.00;;
66175;SDS011;52977;44.816;20.538;2023-04-15T04:35:38;3.53;;;1.40;;
66175;SDS011;52977;44.816;20.538;2023-04-15T04:38:04;3.17;;;1.10;;
66175;SDS011;52977;44.816;20.538;2023-04-15T04:40:30;2.65;;;1.05;;
66175;SDS011;52977;44.816;20.538;2023-04-15T04:42:56;2.72;;;0.90;;
66175;SDS011;52977;44.816;20.538;2023-04-15T04:45:22;3.67;;;0.90;;
66175;SDS011;52977;44.816;20.538;2023-04-15T04:47:49;2.25;;;0.93;;
66175;SDS011;52977;44.816;20.538;2023-04-15T04:50:15;3.72;;;1.00;;
66175;SDS011;52977;44.816;20.538;2023-04-15T04:52:41;2.63;;;1.00;;
66175;SDS011;52977;44.816;20.538;2023-04-15T04:55:07;2.80;;;1.00;;
66175;SDS011;52977;44.816;20.538;2023-04-15T04:57:34;2.30;;;0.88;;
66175;SDS011;52977;44.816;20.538;2023-04-15T05:00:05;1.95;;;1.00;;
66175;SDS011;52977;44.816;20.538;2023-04-15T05:02:33;3.80;;;0.90;;
66175;SDS011;52977;44.816;20.538;2023-04-15T05:04:59;4.28;;;0.77;;
66175;SDS011;52977;44.816;20.538;2023-04-15T05:07:26;2.20;;;1.00;;
66175;SDS011;52977;44.816;20.538;2023-04-15T05:09:52;2.80;;;1.02;;
66175;SDS011;52977;44.816;20.538;2023-04-15T05:12:18;5.78;;;1.00;;
66175;SDS011;52977;44.816;20.538;2023-04-15T05:14:44;4.45;;;1.20;;
66175;SDS011;52977;44.816;20.538;2023-04-15T05:17:11;2.90;;;1.00;;
66175;SDS011;52977;44.816;20.538;2023-04-15T05:19:37;4.65;;;1.02;;
66175;SDS011;52977;44.816;20.538;2023-04-15T05:22:03;3.17;;;0.98;;
66175;SDS011;52977;44.816;20.538;2023-04-15T05:24:29;4.97;;;1.30;;
66175;SDS011;52977;44.816;20.538;2023-04-15T05:26:56;3.30;;;1.23;;
66175;SDS011;52977;44.816;20.538;2023-04-15T05:29:22;5.57;;;1.25;;
66175;SDS011;52977;44.816;20.538;2023-04-15T05:31:48;3.20;;;1.02;;
66175;SDS011;52977;44.816;20.538;2023-04-15T05:34:14;4.72;;;1.00;;
66175;SDS011;52977;44.816;20.538;2023-04-15T05:36:42;3.10;;;1.30;;
66175;SDS011;52977;44.816;20.538;2023-04-15T05:39:08;3.15;;;1.00;;
66175;SDS011;52977;44.816;20.538;2023-04-15T05:41:34;2.60;;;1.15;;
66175;SDS011;52977;44.816;20.538;2023-04-15T05:44:00;5.20;;;1.60;;
66175;SDS011;52977;44.816;20.538;2023-04-15T05:46:26;4.32;;;1.35;;
66175;SDS011;52977;44.816;20.538;2023-04-15T05:48:52;4.05;;;1.60;;
66175;SDS011;52977;44.816;20.538;2023-04-15T05:51:18;5.07;;;1.60;;
66175;SDS011;52977;44.816;20.538;2023-04-15T05:53:44;5.57;;;1.65;;
66175;SDS011;52977;44.816;20.538;2023-04-15T05:56:10;3.45;;;1.27;;
66175;SDS011;52977;44.816;20.538;2023-04-15T05:58:36;3.45;;;1.38;;
66175;SDS011;52977;44.816;20.538;2023-04-15T06:01:02;3.10;;;1.20;;
66175;SDS011;52977;44.816;20.538;2023-04-15T06:03:28;2.45;;;0.85;;
66175;SDS011;52977;44.816;20.538;2023-04-15T06:05:53;2.97;;;0.90;;
66175;SDS011;52977;44.816;20.538;2023-04-15T06:08:19;1.88;;;0.98;;
66175;SDS011;52977;44.816;20.538;2023-04-15T06:10:45;2.47;;;1.00;;
66175;SDS011;52977;44.816;20.538;2023-04-15T06:13:11;2.33;;;1.00;;
66175;SDS011;52977;44.816;20.538;2023-04-15T06:15:37;3.38;;;0.90;;
66175;SDS011;52977;44.816;20.538;2023-04-15T06:18:02;8.15;;;1.23;;
66175;SDS011;52977;44.816;20.538;2023-04-15T06:20:28;5.03;;;1.00;;
66175;SDS011;52977;44.816;20.538;2023-04-15T06:22:54;2.67;;;1.15;;
66175;SDS011;52977;44.816;20.538;2023-04-15T06:25:19;3.35;;;1.10;;
66175;SDS011;52977;44.816;20.538;2023-04-15T06:27:45;3.38;;;1.00;;
66175;SDS011;52977;44.816;20.538;2023-04-15T06:30:11;3.42;;;1.08;;
66175;SDS011;52977;44.816;20.538;2023-04-15T06:32:36;3.70;;;0.90;;
66175;SDS011;52977;44.816;20.538;2023-04-15T06:35:02;3.42;;;1.35;;
66175;SDS011;52977;44.816;20.538;2023-04-15T06:37:28;4.18;;;1.63;;
66175;SDS011;52977;44.816;20.538;2023-04-15T06:39:54;4.63;;;1.45;;
66175;SDS011;52977;44.816;20.538;2023-04-15T06:42:19;9.57;;;2.10;;
66175;SDS011;52977;44.816;20.538;2023-04-15T06:44:46;5.60;;;1.90;;
66175;SDS011;52977;44.816;20.538;2023-04-15T06:47:12;3.97;;;1.33;;
66175;SDS011;52977;44.816;20.538;2023-04-15T06:49:39;4.35;;;1.27;;
66175;SDS011;52977;44.816;20.538;2023-04-15T06:52:05;2.80;;;1.27;;
66175;SDS011;52977;44.816;20.538;2023-04-15T06:54:31;5.95;;;0.90;;
66175;SDS011;52977;44.816;20.538;2023-04-15T06:56:57;2.05;;;0.68;;
66175;SDS011;52977;44.816;20.538;2023-04-15T06:59:23;3.33;;;0.80;;
66175;SDS011;52977;44.816;20.538;2023-04-15T07:01:49;3.80;;;0.95;;
66175;SDS011;52977;44.816;20.538;2023-04-15T07:04:15;4.22;;;0.95;;
66175;SDS011;52977;44.816;20.538;2023-04-15T07:06:42;2.30;;;0.90;;
66175;SDS011;52977;44.816;20.538;2023-04-15T07:09:08;2.47;;;0.90;;
66175;SDS011;52977;44.816;20.538;2023-04-15T07:11:35;4.30;;;0.80;;
66175;SDS011;52977;44.816;20.538;2023-04-15T07:14:01;1.45;;;0.60;;
66175;SDS011;52977;44.816;20.538;2023-04-15T07:16:27;2.28;;;1.10;;
66175;SDS011;52977;44.816;20.538;2023-04-15T07:18:54;2.03;;;0.70;;
66175;SDS011;52977;44.816;20.538;2023-04-15T07:21:20;0.88;;;0.50;;
66175;SDS011;52977;44.816;20.538;2023-04-15T07:23:47;1.65;;;0.60;;
66175;SDS011;52977;44.816;20.538;2023-04-15T07:26:13;2.30;;;0.68;;
66175;SDS011;52977;44.816;20.538;2023-04-15T07:28:39;6.10;;;1.60;;
66175;SDS011;52977;44.816;20.538;2023-04-15T07:31:05;3.97;;;1.25;;
66175;SDS011;52977;44.816;20.538;2023-04-15T07:33:31;6.15;;;0.77;;
66175;SDS011;52977;44.816;20.538;2023-04-15T07:35:57;1.75;;;0.60;;
66175;SDS011;52977;44.816;20.538;2023-04-15T07:38:23;1.02;;;0.45;;
66175;SDS011;52977;44.816;20.538;2023-04-15T07:40:50;1.92;;;0.60;;
66175;SDS011;52977;44.816;20.538;2023-04-15T07:43:16;1.90;;;0.70;;
66175;SDS011;52977;44.816;20.538;2023-04-15T07:45:43;1.38;;;0.60;;
66175;SDS011;52977;44.816;20.538;2023-04-15T07:48:09;3.08;;;0.80;;
66175;SDS011;52977;44.816;20.538;2023-04-15T07:50:36;3.78;;;0.75;;
66175;SDS011;52977;44.816;20.538;2023-04-15T07:53:02;1.23;;;0.60;;
66175;SDS011;52977;44.816;20.538;2023-04-15T07:55:28;1.90;;;0.60;;
66175;SDS011;52977;44.816;20.538;2023-04-15T07:57:55;2.90;;;0.50;;
66175;SDS011;52977;44.816;20.538;2023-04-15T08:00:21;2.40;;;0.60;;
66175;SDS011;52977;44.816;20.538;2023-04-15T08:02:48;1.98;;;0.60;;
66175;SDS011;52977;44.816;20.538;2023-04-15T08:05:13;2.22;;;0.70;;
66175;SDS011;52977;44.816;20.538;2023-04-15T08:07:39;2.05;;;0.60;;
66175;SDS011;52977;44.816;20.538;2023-04-15T08:10:05;1.10;;;0.60;;
66175;SDS011;52977;44.816;20.538;2023-04-15T08:12:32;1.50;;;0.70;;
66175;SDS011;52977;44.816;20.538;2023-04-15T08:14:57;2.83;;;1.00;;
66175;SDS011;52977;44.816;20.538;2023-04-15T08:17:23;2.10;;;0.60;;
66175;SDS011;52977;44.816;20.538;2023-04-15T08:19:49;1.45;;;0.70;;
66175;SDS011;52977;44.816;20.538;2023-04-15T08:22:15;1.08;;;0.52;;
66175;SDS011;52977;44.816;20.538;2023-04-15T08:24:41;3.15;;;0.70;;
66175;SDS011;52977;44.816;20.538;2023-04-15T08:27:07;2.85;;;0.80;;
66175;SDS011;52977;44.816;20.538;2023-04-15T08:29:33;3.30;;;1.02;;
66175;SDS011;52977;44.816;20.538;2023-04-15T08:31:59;3.22;;;0.80;;
66175;SDS011;52977;44.816;20.538;2023-04-15T08:34:26;2.70;;;1.00;;
66175;SDS011;52977;44.816;20.538;2023-04-15T08:36:53;4.20;;;1.10;;
66175;SDS011;52977;44.816;20.538;2023-04-15T08:39:19;3.90;;;1.45;;
66175;SDS011;52977;44.816;20.538;2023-04-15T08:41:46;3.25;;;1.10;;
66175;SDS011;52977;44.816;20.538;2023-04-15T08:44:28;2.90;;;1.05;;
66175;SDS011;52977;44.816;20.538;2023-04-15T08:47:00;5.55;;;1.88;;
66175;SDS011;52977;44.816;20.538;2023-04-15T08:49:27;3.78;;;1.52;;
66175;SDS011;52977;44.816;20.538;2023-04-15T08:51:54;2.85;;;1.10;;
66175;SDS011;52977;44.816;20.538;2023-04-15T08:54:23;3.42;;;1.00;;
66175;SDS011;52977;44.816;20.538;2023-04-15T08:56:50;2.03;;;0.80;;
66175;SDS011;52977;44.816;20.538;2023-04-15T08:59:17;3.50;;;1.40;;
66175;SDS011;52977;44.816;20.538;2023-04-15T09:01:46;2.80;;;1.35;;
66175;SDS011;52977;44.816;20.538;2023-04-15T09:04:13;4.82;;;1.50;;
66175;SDS011;52977;44.816;20.538;2023-04-15T09:06:39;3.15;;;1.00;;
66175;SDS011;52977;44.816;20.538;2023-04-15T09:09:06;4.05;;;1.00;;
66175;SDS011;52977;44.816;20.538;2023-04-15T09:11:32;1.70;;;0.70;;
66175;SDS011;52977;44.816;20.538;2023-04-15T09:13:59;1.42;;;0.68;;
66175;SDS011;52977;44.816;20.538;2023-04-15T09:16:25;6.50;;;1.55;;
66175;SDS011;52977;44.816;20.538;2023-04-15T09:18:52;2.00;;;0.80;;
66175;SDS011;52977;44.816;20.538;2023-04-15T09:21:18;2.47;;;0.90;;
66175;SDS011;52977;44.816;20.538;2023-04-15T09:23:58;2.85;;;1.10;;
66175;SDS011;52977;44.816;20.538;2023-04-15T09:26:35;3.03;;;1.00;;
66175;SDS011;52977;44.816;20.538;2023-04-15T09:29:06;11.63;;;3.30;;
66175;SDS011;52977;44.816;20.538;2023-04-15T09:31:37;6.68;;;2.20;;
66175;SDS011;52977;44.816;20.538;2023-04-15T09:34:04;4.97;;;2.10;;
66175;SDS011;52977;44.816;20.538;2023-04-15T09:36:50;3.58;;;1.58;;
66175;SDS011;52977;44.816;20.538;2023-04-15T09:39:18;2.45;;;1.00;;
66175;SDS011;52977;44.816;20.538;2023-04-15T09:41:45;2.42;;;0.77;;
66175;SDS011;52977;44.816;20.538;2023-04-15T09:44:22;2.80;;;0.90;;
66175;SDS011;52977;44.816;20.538;2023-04-15T09:46:51;2.50;;;1.05;;
66175;SDS011;52977;44.816;20.538;2023-04-15T09:49:17;3.85;;;1.10;;
66175;SDS011;52977;44.816;20.538;2023-04-15T09:51:43;2.28;;;0.98;;
66175;SDS011;52977;44.816;20.538;2023-04-15T09:54:09;2.78;;;0.80;;
66175;SDS011;52977;44.816;20.538;2023-04-15T09:56:36;6.50;;;1.52;;
66175;SDS011;52977;44.816;20.538;2023-04-15T09:59:05;3.80;;;0.90;;
66175;SDS011;52977;44.816;20.538;2023-04-15T10:01:35;3.67;;;1.08;;
66175;SDS011;52977;44.816;20.538;2023-04-15T10:04:02;5.32;;;1.40;;
66175;SDS011;52977;44.816;20.538;2023-04-15T10:06:29;2.35;;;1.00;;
66175;SDS011;52977;44.816;20.538;2023-04-15T10:08:56;4.55;;;1.13;;
66175;SDS011;52977;44.816;20.538;2023-04-15T10:11:23;4.78;;;1.60;;
66175;SDS011;52977;44.816;20.538;2023-04-15T10:13:53;3.47;;;1.15;;
66175;SDS011;52977;44.816;20.538;2023-04-15T10:16:21;5.28;;;1.30;;
66175;SDS011;52977;44.816;20.538;2023-04-15T10:18:56;1.80;;;0.90;;
66175;SDS011;52977;44.816;20.538;2023-04-15T10:21:23;2.67;;;1.00;;
66175;SDS011;52977;44.816;20.538;2023-04-15T10:23:49;3.42;;;0.90;;
66175;SDS011;52977;44.816;20.538;2023-04-15T10:26:16;2.58;;;1.10;;
66175;SDS011;52977;44.816;20.538;2023-04-15T10:28:45;2.20;;;0.90;;
66175;SDS011;52977;44.816;20.538;2023-04-15T10:31:13;1.75;;;0.90;;
66175;SDS011;52977;44.816;20.538;2023-04-15T10:33:40;3.63;;;1.10;;
66175;SDS011;52977;44.816;20.538;2023-04-15T10:36:07;2.20;;;0.82;;
66175;SDS011;52977;44.816;20.538;2023-04-15T10:38:38;5.57;;;2.15;;
66175;SDS011;52977;44.816;20.538;2023-04-15T10:43:53;2.70;;;0.95;;
66175;SDS011;52977;44.816;20.538;2023-04-15T10:46:34;2.75;;;1.05;;
66175;SDS011;52977;44.816;20.538;2023-04-15T10:49:08;5.95;;;1.95;;
66175;SDS011;52977;44.816;20.538;2023-04-15T10:51:36;22.02;;;8.77;;
66175;SDS011;52977;44.816;20.538;2023-04-15T10:56:50;3.53;;;1.00;;
66175;SDS011;52977;44.816;20.538;2023-04-15T10:59:17;2.80;;;0.73;;
66175;SDS011;52977;44.816;20.538;2023-04-15T11:01:50;13.90;;;5.85;;
66175;SDS011;52977;44.816;20.538;2023-04-15T11:12:58;2.83;;;1.20;;
66175;SDS011;52977;44.816;20.538;2023-04-15T11:15:30;2.08;;;0.80;;
66175;SDS011;52977;44.816;20.538;2023-04-15T11:18:07;5.10;;;2.40;;
66175;SDS011;52977;44.816;20.538;2023-04-15T11:20:35;3.50;;;1.60;;
66175;SDS011;52977;44.816;20.538;2023-04-15T11:23:03;1.23;;;0.60;;
66175;SDS011;52977;44.816;20.538;2023-04-15T11:25:31;13.57;;;5.30;;
66175;SDS011;52977;44.816;20.538;2023-04-15T11:27:59;8.50;;;3.05;;
66175;SDS011;52977;44.816;20.538;2023-04-15T11:30:27;10.80;;;3.72;;
66175;SDS011;52977;44.816;20.538;2023-04-15T11:33:02;20.30;;;7.40;;
66175;SDS011;52977;44.816;20.538;2023-04-15T11:35:30;23.30;;;8.20;;
66175;SDS011;52977;44.816;20.538;2023-04-15T11:37:57;10.32;;;4.30;;
66175;SDS011;52977;44.816;20.538;2023-04-15T11:40:28;14.63;;;6.28;;
66175;SDS011;52977;44.816;20.538;2023-04-15T11:43:14;16.13;;;6.68;;
66175;SDS011;52977;44.816;20.538;2023-04-15T11:48:27;11.40;;;4.20;;
66175;SDS011;52977;44.816;20.538;2023-04-15T11:53:41;6.85;;;1.67;;
66175;SDS011;52977;44.816;20.538;2023-04-15T11:56:10;4.65;;;1.45;;
66175;SDS011;52977;44.816;20.538;2023-04-15T11:58:44;4.10;;;1.52;;
66175;SDS011;52977;44.816;20.538;2023-04-15T12:01:11;8.70;;;3.45;;
66175;SDS011;52977;44.816;20.538;2023-04-15T12:03:46;8.88;;;3.63;;
66175;SDS011;52977;44.816;20.538;2023-04-15T12:06:23;11.68;;;4.05;;
66175;SDS011;52977;44.816;20.538;2023-04-15T12:08:51;7.15;;;3.00;;
66175;SDS011;52977;44.816;20.538;2023-04-15T12:11:26;33.40;;;11.67;;
66175;SDS011;52977;44.816;20.538;2023-04-15T12:13:58;15.82;;;5.30;;
66175;SDS011;52977;44.816;20.538;2023-04-15T12:16:28;10.40;;;3.85;;
66175;SDS011;52977;44.816;20.538;2023-04-15T12:18:55;6.25;;;2.45;;
66175;SDS011;52977;44.816;20.538;2023-04-15T12:21:23;14.77;;;6.07;;
66175;SDS011;52977;44.816;20.538;2023-04-15T12:23:51;16.98;;;6.63;;
66175;SDS011;52977;44.816;20.538;2023-04-15T12:26:24;17.33;;;6.65;;
66175;SDS011;52977;44.816;20.538;2023-04-15T12:29:03;8.30;;;3.28;;
66175;SDS011;52977;44.816;20.538;2023-04-15T12:31:30;4.85;;;1.85;;
66175;SDS011;52977;44.816;20.538;2023-04-15T12:33:57;2.95;;;1.30;;
66175;SDS011;52977;44.816;20.538;2023-04-15T12:36:25;2.40;;;1.20;;
66175;SDS011;52977;44.816;20.538;2023-04-15T12:38:53;3.58;;;1.30;;
66175;SDS011;52977;44.816;20.538;2023-04-15T12:41:19;4.57;;;2.13;;
66175;SDS011;52977;44.816;20.538;2023-04-15T12:43:46;7.75;;;3.13;;
66175;SDS011;52977;44.816;20.538;2023-04-15T12:46:12;10.88;;;4.20;;
66175;SDS011;52977;44.816;20.538;2023-04-15T12:48:40;7.35;;;2.80;;
66175;SDS011;52977;44.816;20.538;2023-04-15T12:51:06;2.70;;;1.20;;
66175;SDS011;52977;44.816;20.538;2023-04-15T12:53:31;3.80;;;1.55;;
66175;SDS011;52977;44.816;20.538;2023-04-15T12:55:57;18.70;;;7.47;;
66175;SDS011;52977;44.816;20.538;2023-04-15T12:58:23;15.45;;;6.07;;
66175;SDS011;52977;44.816;20.538;2023-04-15T13:00:48;4.43;;;1.63;;
66175;SDS011;52977;44.816;20.538;2023-04-15T13:03:14;2.90;;;1.20;;
66175;SDS011;52977;44.816;20.538;2023-04-15T13:05:40;3.95;;;1.15;;
66175;SDS011;52977;44.816;20.538;2023-04-15T13:08:06;4.68;;;1.75;;
66175;SDS011;52977;44.816;20.538;2023-04-15T13:10:32;16.55;;;7.30;;
66175;SDS011;52977;44.816;20.538;2023-04-15T13:13:00;17.15;;;7.35;;
66175;SDS011;52977;44.816;20.538;2023-04-15T13:15:27;3.88;;;1.38;;
66175;SDS011;52977;44.816;20.538;2023-04-15T13:17:53;3.08;;;1.27;;
66175;SDS011;52977;44.816;20.538;2023-04-15T13:20:19;5.53;;;1.48;;
66175;SDS011;52977;44.816;20.538;2023-04-15T13:22:45;6.80;;;1.80;;
66175;SDS011;52977;44.816;20.538;2023-04-15T13:25:10;10.27;;;3.35;;
66175;SDS011;52977;44.816;20.538;2023-04-15T13:27:36;10.90;;;3.78;;
66175;SDS011;52977;44.816;20.538;2023-04-15T13:30:02;7.75;;;2.58;;
66175;SDS011;52977;44.816;20.538;2023-04-15T13:32:29;2.83;;;1.10;;
66175;SDS011;52977;44.816;20.538;2023-04-15T13:34:55;2.40;;;0.80;;
66175;SDS011;52977;44.816;20.538;2023-04-15T13:37:25;5.80;;;1.40;;
66175;SDS011;52977;44.816;20.538;2023-04-15T13:39:52;5.15;;;2.47;;
66175;SDS011;52977;44.816;20.538;2023-04-15T13:42:18;4.20;;;1.63;;
66175;SDS011;52977;44.816;20.538;2023-04-15T13:44:44;3.40;;;1.60;;
66175;SDS011;52977;44.816;20.538;2023-04-15T13:47:09;4.22;;;1.30;;
66175;SDS011;52977;44.816;20.538;2023-04-15T13:49:35;2.33;;;1.00;;
66175;SDS011;52977;44.816;20.538;2023-04-15T13:52:01;2.88;;;1.10;;
66175;SDS011;52977;44.816;20.538;2023-04-15T13:54:26;2.38;;;0.90;;
66175;SDS011;52977;44.816;20.538;2023-04-15T13:56:53;2.13;;;0.88;;
66175;SDS011;52977;44.816;20.538;2023-04-15T13:59:20;1.83;;;0.70;;
66175;SDS011;52977;44.816;20.538;2023-04-15T14:01:46;2.58;;;0.88;;
66175;SDS011;52977;44.816;20.538;2023-04-15T14:04:12;1.90;;;0.70;;
66175;SDS011;52977;44.816;20.538;2023-04-15T14:06:37;1.65;;;0.60;;
66175;SDS011;52977;44.816;20.538;2023-04-15T14:09:03;1.48;;;0.70;;
66175;SDS011;52977;44.816;20.538;2023-04-15T14:11:29;2.58;;;1.20;;
66175;SDS011;52977;44.816;20.538;2023-04-15T14:13:54;1.58;;;0.75;;
66175;SDS011;52977;44.816;20.538;2023-04-15T14:16:20;1.23;;;0.70;;
66175;SDS011;52977;44.816;20.538;2023-04-15T14:18:45;3.28;;;1.15;;
66175;SDS011;52977;44.816;20.538;2023-04-15T14:21:11;2.40;;;1.00;;
66175;SDS011;52977;44.816;20.538;2023-04-15T14:23:37;4.80;;;1.17;;
66175;SDS011;52977;44.816;20.538;2023-04-15T14:26:02;4.03;;;1.58;;
66175;SDS011;52977;44.816;20.538;2023-04-15T14:28:28;3.30;;;0.90;;
66175;SDS011;52977;44.816;20.538;2023-04-15T14:30:54;1.75;;;0.85;;
66175;SDS011;52977;44.816;20.538;2023-04-15T14:33:19;2.30;;;0.80;;
66175;SDS011;52977;44.816;20.538;2023-04-15T14:35:45;2.53;;;1.02;;
66175;SDS011;52977;44.816;20.538;2023-04-15T14:38:10;2.60;;;0.93;;
66175;SDS011;52977;44.816;20.538;2023-04-15T14:40:36;2.60;;;1.20;;
66175;SDS011;52977;44.816;20.538;2023-04-15T14:43:02;3.13;;;1.00;;
66175;SDS011;52977;44.816;20.538;2023-04-15T14:45:28;2.28;;;1.00;;
66175;SDS011;52977;44.816;20.538;2023-04-15T14:47:54;4.47;;;1.40;;
66175;SDS011;52977;44.816;20.538;2023-04-15T14:50:20;2.70;;;0.90;;
66175;SDS011;52977;44.816;20.538;2023-04-15T14:52:46;2.10;;;0.93;;